Data for 02/14/2018

Time Sea-Level Adjusted Pressure Absolute Pressure Temperature Relative Humidity Dew Point   
(mb) (inHg) (mb) (inHg) (C) (F) (%) (C) (F)
00:05 1015 29.97 844 24.92 -4 24.8 56 -11.6 11.1
00:10 1015 29.97 844 24.92 -4 24.8 56 -11.7 11
00:15 1015 29.97 844 24.92 -4 24.8 55 -11.8 10.8
00:20 1014 29.94 844 24.92 -3.8 25.1 55 -11.6 11.1
00:25 1014 29.94 844 24.92 -4 24.8 54 -11.9 10.6
00:30 1014 29.94 844 24.92 -4.3 24.2 57 -11.6 11.1
00:35 1014 29.94 843 24.89 -5 23.1 57 -12.3 9.8
00:40 1014 29.94 843 24.89 -4.7 23.6 57 -12 10.3
00:45 1014 29.94 843 24.89 -4.2 24.5 54 -12.1 10.2
00:50 1014 29.94 843 24.89 -4.2 24.5 54 -12.2 10.1
00:55 1014 29.94 843 24.89 -4.7 23.6 58 -11.8 10.7
01:00 1014 29.94 843 24.89 -5.2 22.6 58 -12.2 10
01:05 1014 29.94 843 24.89 -5.2 22.7 56 -12.7 9.1
01:10 1014 29.94 843 24.89 -5.4 22.3 59 -12.2 10
01:15 1014 29.94 843 24.89 -6.3 20.6 63 -12.3 9.8
01:20 1014 29.94 843 24.89 -6.4 20.4 63 -12.4 9.6
01:25 1014 29.94 843 24.89 -6.1 21.1 62 -12.2 10
01:30 1014 29.94 843 24.89 -5.3 22.5 54 -13.1 8.5
01:35 1014 29.94 843 24.89 -4.3 24.3 52 -12.7 9.2
01:40 1014 29.94 843 24.89 -5.2 22.7 58 -12.1 10.2
01:45 1013 29.91 843 24.89 -5.4 22.3 59 -12.3 9.9
01:50 1013 29.91 843 24.89 -5 22.9 57 -12.2 10
01:55 1013 29.91 843 24.89 -5.1 22.9 58 -12.1 10.2
02:00 1013 29.91 842 24.86 -4.6 23.6 57 -11.9 10.5
02:05 1013 29.91 842 24.86 -4.1 24.7 55 -11.9 10.6
02:10 1013 29.91 842 24.86 -4 24.7 54 -12 10.5
02:15 1013 29.91 842 24.86 -4 24.8 55 -11.8 10.7
02:20 1013 29.91 842 24.86 -4.3 24.2 56 -11.8 10.8
02:25 1013 29.91 842 24.86 -4.3 24.2 56 -11.8 10.7
02:30 1013 29.91 842 24.86 -4.2 24.5 55 -11.8 10.7
02:35 1013 29.91 842 24.86 -4.1 24.7 55 -11.8 10.7
02:40 1012 29.88 842 24.86 -4 24.8 55 -11.8 10.8
02:45 1012 29.88 842 24.86 -3.9 24.9 55 -11.8 10.8
02:50 1012 29.88 842 24.86 -3.3 26 53 -11.7 11
02:55 1012 29.88 842 24.86 -3.1 26.5 52 -11.5 11.3
03:00 1012 29.88 842 24.86 -2.9 26.7 52 -11.5 11.3
03:05 1012 29.88 842 24.86 -2.9 26.7 52 -11.4 11.4
03:10 1012 29.88 841 24.83 -3.2 26.3 53 -11.3 11.6
03:15 1012 29.88 841 24.83 -3.3 26.1 53 -11.4 11.4
03:20 1012 29.88 841 24.83 -3.4 25.9 53 -11.6 11.2
03:25 1012 29.88 841 24.83 -3.3 26.1 53 -11.5 11.2
03:30 1012 29.88 841 24.83 -3.2 26.2 53 -11.5 11.2
03:35 1012 29.88 841 24.83 -3 26.6 52 -11.6 11.1
03:40 1012 29.88 841 24.83 -2.9 26.8 50 -11.9 10.5
03:45 1012 29.88 841 24.83 -2.4 27.8 47 -12.2 10.1
03:50 1012 29.88 841 24.83 -2.1 28.3 47 -11.9 10.6
03:55 1012 29.88 841 24.83 -2.3 27.9 48 -11.8 10.7
04:00 1012 29.88 841 24.83 -2.3 27.9 48 -11.9 10.6
04:05 1012 29.88 841 24.83 -2.1 28.3 49 -11.3 11.6
04:10 1012 29.88 841 24.83 -3 26.6 53 -11.2 11.8
04:15 1012 29.88 841 24.83 -3.2 26.3 51 -11.8 10.7
04:20 1012 29.88 841 24.83 -2.3 27.9 48 -12 10.4
04:25 1012 29.88 841 24.83 -2 28.4 50 -11.1 12.1
04:30 1012 29.88 841 24.83 -2.6 27.4 49 -12 10.4
04:35 1012 29.88 841 24.83 -2.4 27.6 50 -11.6 11.2
04:40 1011 29.85 841 24.83 -2.2 28 49 -11.7 11
04:45 1011 29.85 841 24.83 -2.1 28.2 49 -11.5 11.2
04:50 1011 29.85 841 24.83 -2 28.3 48 -11.7 10.9
04:55 1011 29.85 841 24.83 -2.1 28.3 48 -11.8 10.8
05:00 1011 29.85 840 24.81 -1.9 28.6 48 -11.6 11.1
05:05 1011 29.85 840 24.81 -2.3 27.9 49 -11.6 11.2
05:10 1011 29.85 841 24.83 -3.2 26.3 55 -11 12.3
05:15 1011 29.85 840 24.81 -3.6 25.5 51 -12.3 9.9
05:20 1011 29.85 840 24.81 -2.7 27.1 52 -11.2 11.8
05:25 1011 29.85 840 24.81 -3.5 25.7 53 -11.7 11
05:30 1011 29.85 840 24.81 -2.9 26.7 52 -11.5 11.3
05:35 1011 29.85 840 24.81 -3.1 26.5 51 -11.9 10.7
05:40 1011 29.85 840 24.81 -2.9 26.8 52 -11.5 11.3
05:45 1011 29.85 840 24.81 -2.8 26.9 50 -11.9 10.7
05:50 1011 29.85 840 24.81 -2.8 27 52 -11.4 11.4
05:55 1011 29.85 840 24.81 -2.9 26.8 51 -11.6 11.2
06:00 1011 29.85 840 24.81 -2.9 26.8 51 -11.6 11
06:05 1011 29.85 840 24.81 -3.2 26.2 53 -11.5 11.3
06:10 1011 29.85 840 24.81 -3.2 26.3 53 -11.5 11.3
06:15 1011 29.85 840 24.81 -3.5 25.7 53 -11.8 10.8
06:20 1010 29.83 840 24.81 -3.2 26.2 52 -11.8 10.8
06:25 1010 29.83 840 24.81 -3.1 26.5 53 -11.4 11.5
06:30 1010 29.83 840 24.81 -3.3 26.1 51 -11.9 10.5
06:35 1010 29.83 840 24.81 -2.7 27.2 49 -12 10.5
06:40 1010 29.83 840 24.81 -2.7 27.2 52 -11.3 11.7
06:45 1010 29.83 839 24.78 -3 26.6 51 -11.8 10.8
06:50 1010 29.83 840 24.81 -3.2 26.3 51 -11.8 10.7
06:55 1010 29.83 839 24.78 -2.4 27.8 49 -11.6 11
07:00 1010 29.83 840 24.81 -3.3 26.1 54 -11.3 11.6
07:05 1010 29.83 840 24.81 -3.6 25.5 54 -11.7 11
07:10 1010 29.83 840 24.81 -3.1 26.3 52 -11.6 11.2
07:15 1010 29.83 840 24.81 -2.8 27 49 -12 10.4
07:20 1010 29.83 840 24.81 -2.3 27.8 50 -11.5 11.4
07:25 1010 29.83 840 24.81 -2.6 27.3 50 -11.6 11.1
07:30 1010 29.83 840 24.81 -2.5 27.5 49 -11.8 10.7
07:35 1010 29.83 840 24.81 -1.9 28.6 47 -11.7 11
07:40 1010 29.83 840 24.81 -1.5 29.2 46 -11.6 11
07:45 1010 29.83 840 24.81 -1.3 29.6 45 -11.9 10.6
07:50 1010 29.83 840 24.81 -0.7 30.7 42 -12.1 10.3
07:55 1010 29.83 840 24.81 -0.2 31.6 42 -11.6 11.1
08:00 1010 29.83 839 24.78 0.5 32.8 40 -11.8 10.8
08:05 1010 29.83 839 24.78 1.1 34 39 -11.2 11.8
08:10 1010 29.83 839 24.78 1.5 34.6 38 -11.3 11.6
08:15 1010 29.83 839 24.78 1.7 35 37 -11.5 11.3
08:20 1010 29.83 839 24.78 1.6 34.9 37 -11.5 11.3
08:25 1010 29.83 839 24.78 1.6 34.9 38 -11.1 12
08:30 1010 29.83 839 24.78 2 35.6 38 -10.9 12.4
08:35 1010 29.83 839 24.78 2.5 36.6 37 -10.6 12.9
08:40 1010 29.83 839 24.78 3.1 37.6 36 -10.7 12.8
08:45 1010 29.83 839 24.78 3.9 39 33 -10.8 12.5
08:50 1010 29.83 839 24.78 4.6 40.2 32 -10.8 12.5
08:55 1010 29.83 839 24.78 4.9 40.8 31 -10.9 12.3
09:00 1010 29.83 839 24.78 4.8 40.7 31 -11 12.2
09:05 1010 29.83 839 24.78 4.9 40.9 29 -11.5 11.3
09:10 1010 29.83 839 24.78 5.1 41.2 31 -10.9 12.4
09:15 1010 29.83 839 24.78 5 41 31 -10.8 12.5
09:20 1010 29.83 839 24.78 5 41 30 -11.2 11.9
09:25 1010 29.83 839 24.78 5.2 41.4 31 -10.6 13
09:30 1010 29.83 839 24.78 5 41.1 32 -10.4 13.3
09:35 1010 29.83 839 24.78 5 40.9 30 -11 12.2
09:40 1010 29.83 839 24.78 4.9 40.8 31 -11 12.2
09:45 1010 29.83 839 24.78 4.9 40.8 28 -11.9 10.5
09:50 1010 29.83 839 24.78 4.6 40.3 30 -11.5 11.3
09:55 1010 29.83 839 24.78 4.9 40.8 30 -11.3 11.6
10:00 1010 29.83 839 24.78 4.7 40.5 31 -11 12.2
10:05 1010 29.83 839 24.78 4.4 39.9 31 -11.3 11.7
10:10 1010 29.83 839 24.78 4.6 40.2 33 -10.4 13.2
10:15 1010 29.83 839 24.78 4.5 40 34 -10.2 13.7
10:20 1010 29.83 839 24.78 4.6 40.2 32 -10.7 12.7
10:25 1010 29.83 839 24.78 4.7 40.4 32 -10.8 12.6
10:30 1010 29.83 839 24.78 5 41 30 -11.1 12
10:35 1010 29.83 839 24.78 4.8 40.6 30 -11.4 11.5
10:40 1010 29.83 839 24.78 3.9 39.1 33 -10.9 12.4
10:45 1010 29.83 839 24.78 3.6 38.5 33 -11.4 11.4
10:50 1010 29.83 839 24.78 3.8 38.9 31 -11.8 10.8
10:55 1010 29.83 839 24.78 4 39.2 31 -11.6 11.2
11:00 1010 29.83 839 24.78 3.9 39 32 -11.4 11.6
11:05 1010 29.83 839 24.78 3.8 38.9 33 -11.1 12.1
11:10 1010 29.83 839 24.78 4.4 39.9 32 -11 12.3
11:15 1010 29.83 839 24.78 4.6 40.2 31 -11.4 11.6
11:20 1010 29.83 839 24.78 4.6 40.2 32 -10.9 12.4
11:25 1010 29.83 839 24.78 4.6 40.3 31 -11 12.2
11:30 1010 29.83 839 24.78 4.6 40.2 32 -10.7 12.8
11:35 1010 29.83 839 24.78 4.5 40.1 32 -10.8 12.5
11:40 1010 29.83 839 24.78 4.4 39.9 32 -10.8 12.5
11:45 1010 29.83 839 24.78 4.3 39.8 32 -11.1 12
11:50 1010 29.83 839 24.78 4.3 39.8 30 -11.9 10.6
11:55 1010 29.83 839 24.78 4.4 40 26 -13.4 8
12:00 1010 29.83 839 24.78 4.6 40.3 30 -11.4 11.5
12:05 1010 29.83 839 24.78 4.4 39.9 30 -11.6 11.2
12:10 1010 29.83 839 24.78 4.2 39.6 31 -11.4 11.6
12:15 1010 29.83 839 24.78 4 39.1 34 -10.4 13.2
12:20 1010 29.83 839 24.78 3.6 38.5 36 -10 14
12:25 1010 29.83 839 24.78 3.5 38.3 37 -9.8 14.3
12:30 1010 29.83 839 24.78 3.5 38.3 37 -9.7 14.5
12:35 1010 29.83 839 24.78 3.5 38.3 38 -9.5 14.9
12:40 1010 29.83 839 24.78 3.6 38.4 38 -9.6 14.7
12:45 1010 29.83 839 24.78 3.7 38.6 38 -9.4 15.1
12:50 1010 29.83 839 24.78 3.7 38.7 38 -9.5 15
12:55 1010 29.83 839 24.78 3.7 38.6 40 -8.8 16.2
13:00 1010 29.83 839 24.78 3.5 38.2 41 -8.6 16.6
13:05 1010 29.83 839 24.78 3.3 38 41 -8.7 16.3
13:10 1010 29.83 839 24.78 3.2 37.8 43 -8.3 17.1
13:15 1010 29.83 839 24.78 3.1 37.6 44 -8.1 17.4
13:20 1010 29.83 839 24.78 3.1 37.6 45 -7.6 18.3
13:25 1010 29.83 839 24.78 3 37.4 47 -7.3 18.8
13:30 1010 29.83 839 24.78 3 37.4 47 -7.3 18.9
13:35 1010 29.83 839 24.78 3.1 37.5 45 -7.9 17.8
13:40 1009 29.8 839 24.78 3.2 37.7 46 -7.5 18.5
13:45 1009 29.8 839 24.78 3.1 37.5 46 -7.4 18.8
13:50 1009 29.8 839 24.78 3.1 37.6 45 -7.8 18
13:55 1009 29.8 839 24.78 3.1 37.5 45 -7.8 17.9
14:00 1009 29.8 839 24.78 3 37.5 46 -7.4 18.6
14:05 1009 29.8 839 24.78 3.1 37.6 47 -7.2 19.1
14:10 1009 29.8 839 24.78 3.1 37.5 47 -7.1 19.2
14:15 1009 29.8 839 24.78 3.1 37.5 47 -7.1 19.2
14:20 1009 29.8 839 24.78 3.1 37.5 47 -7.1 19.2
14:25 1009 29.8 839 24.78 3.2 37.7 47 -7.1 19.2
14:30 1009 29.8 839 24.78 3.1 37.5 45 -7.7 18.1
14:35 1009 29.8 839 24.78 3 37.4 46 -7.7 18.2
14:40 1009 29.8 839 24.78 2.9 37.2 46 -7.7 18.1
14:45 1009 29.8 839 24.78 2.9 37.1 47 -7.4 18.8
14:50 1009 29.8 839 24.78 2.8 37 47 -7.4 18.7
14:55 1009 29.8 838 24.75 2.6 36.8 47 -7.6 18.4
15:00 1009 29.8 838 24.75 2.6 36.6 48 -7.3 18.9
15:05 1009 29.8 838 24.75 2.5 36.5 49 -7.2 19
15:10 1009 29.8 838 24.75 2.4 36.3 49 -7.3 18.9
15:15 1009 29.8 838 24.75 2.3 36.1 51 -6.9 19.7
15:20 1009 29.8 838 24.75 2.3 36.2 51 -6.9 19.6
15:25 1009 29.8 838 24.75 2.3 36.1 53 -6.4 20.4
15:30 1009 29.8 838 24.75 2.2 35.9 54 -6.2 20.8
15:35 1009 29.8 838 24.75 2 35.6 54 -6.3 20.7
15:40 1009 29.8 838 24.75 1.9 35.5 54 -6.4 20.4
15:45 1009 29.8 838 24.75 2 35.7 53 -6.5 20.3
15:50 1009 29.8 838 24.75 2 35.6 54 -6.4 20.6
15:55 1009 29.8 838 24.75 2 35.6 53 -6.6 20.1
16:00 1009 29.8 838 24.75 2.1 35.8 53 -6.4 20.4
16:05 1009 29.8 838 24.75 2.1 35.8 54 -6.3 20.7
16:10 1009 29.8 838 24.75 2 35.5 55 -6.1 21.1
16:15 1009 29.8 838 24.75 1.9 35.5 55 -6.1 21.1
16:20 1009 29.8 838 24.75 1.9 35.4 56 -6 21.3
16:25 1009 29.8 838 24.75 1.9 35.3 57 -5.8 21.6
16:30 1009 29.8 839 24.78 1.8 35.2 57 -5.9 21.4
16:35 1009 29.8 839 24.78 1.8 35.2 57 -5.7 21.7
16:40 1009 29.8 839 24.78 1.8 35.2 58 -5.7 21.8
16:45 1009 29.8 838 24.75 1.8 35.2 58 -5.6 21.8
16:50 1009 29.8 839 24.78 1.7 35.1 58 -5.6 21.9
16:55 1009 29.8 838 24.75 1.6 34.8 59 -5.6 21.9
17:00 1009 29.8 838 24.75 1.6 34.8 59 -5.6 22
17:05 1009 29.8 838 24.75 1.5 34.8 58 -5.9 21.5
17:10 1009 29.8 838 24.75 1.5 34.6 59 -5.8 21.6
17:15 1009 29.8 838 24.75 1.3 34.4 60 -5.7 21.8
17:20 1009 29.8 839 24.78 1.2 34.2 61 -5.5 22.1
17:25 1009 29.8 839 24.78 1 33.9 62 -5.5 22.1
17:30 1009 29.8 839 24.78 0.9 33.6 63 -5.5 22.2
17:35 1009 29.8 839 24.78 0.8 33.4 63 -5.4 22.3
17:40 1009 29.8 839 24.78 0.7 33.3 63 -5.5 22.2
17:45 1009 29.8 839 24.78 0.7 33.2 64 -5.4 22.4
17:50 1009 29.8 839 24.78 0.6 33.1 65 -5.3 22.5
17:55 1009 29.8 839 24.78 0.6 33.1 63 -5.5 22.1
18:00 1009 29.8 839 24.78 0.7 33.3 63 -5.6 21.9
18:05 1009 29.8 839 24.78 0.9 33.6 61 -5.7 21.7
18:10 1009 29.8 839 24.78 1 33.8 61 -5.7 21.8
18:15 1009 29.8 839 24.78 1.1 33.9 61 -5.6 21.8
18:20 1009 29.8 839 24.78 1.1 33.9 61 -5.6 21.9
18:25 1009 29.8 839 24.78 1 33.8 62 -5.6 22
18:30 1009 29.8 839 24.78 0.9 33.6 63 -5.4 22.3
18:35 1009 29.8 839 24.78 0.7 33.2 65 -5.1 22.7
18:40 1009 29.8 839 24.78 0.4 32.8 65 -5.3 22.4
18:45 1009 29.8 839 24.78 0.5 32.8 65 -5.4 22.4
18:50 1009 29.8 839 24.78 0.5 32.8 64 -5.5 22.1
18:55 1009 29.8 839 24.78 0.5 32.8 64 -5.5 22
19:00 1010 29.83 839 24.78 0.5 32.9 64 -5.5 22.1
19:05 1010 29.83 839 24.78 0.5 32.9 65 -5.4 22.3
19:10 1010 29.83 839 24.78 0.4 32.7 66 -5.3 22.5
19:15 1010 29.83 839 24.78 0.3 32.5 68 -5 23
19:20 1010 29.83 839 24.78 0.1 32.1 70 -4.8 23.3
19:25 1010 29.83 839 24.78 -0.1 31.9 71 -4.7 23.5
19:30 1010 29.83 839 24.78 -0.1 31.9 69 -5 22.9
19:35 1010 29.83 839 24.78 0 32 69 -5.1 22.8
19:40 1010 29.83 839 24.78 0.1 32.1 68 -5.2 22.6
19:45 1010 29.83 839 24.78 0.1 32.2 68 -5.1 22.9
19:50 1010 29.83 839 24.78 0 32.1 70 -4.7 23.5
19:55 1010 29.83 839 24.78 -0.1 31.8 73 -4.5 23.9
20:00 1010 29.83 839 24.78 -0.2 31.6 74 -4.3 24.3
20:05 1010 29.83 839 24.78 -0.5 31.2 78 -3.8 25.2
20:10 1010 29.83 839 24.78 -0.8 30.6 80 -3.7 25.3
20:15 1010 29.83 839 24.78 -0.9 30.4 81 -3.8 25.2
20:20 1010 29.83 839 24.78 -1 30.2 82 -3.8 25.2
20:25 1010 29.83 839 24.78 -1.1 30.1 82 -3.8 25.2
20:30 1010 29.83 839 24.78 -1.1 30.1 84 -3.5 25.7
20:35 1010 29.83 839 24.78 -1.1 30.1 84 -3.5 25.7
20:40 1010 29.83 839 24.78 -1.1 30 84 -3.5 25.7
20:45 1010 29.83 840 24.81 -1.1 30.1 85 -3.3 26
20:50 1010 29.83 840 24.81 -1 30.2 86 -3 26.6
20:55 1010 29.83 840 24.81 -1.1 30 88 -2.8 26.9
21:00 1011 29.85 840 24.81 -1.2 29.8 89 -2.8 26.9
21:05 1011 29.85 840 24.81 -1.3 29.7 90 -2.8 27
21:10 1011 29.85 840 24.81 -1.4 29.6 90 -2.8 27
21:15 1011 29.85 840 24.81 -1.4 29.5 91 -2.7 27.1
21:20 1011 29.85 840 24.81 -1.4 29.5 91 -2.7 27.1
21:25 1011 29.85 840 24.81 -1.5 29.4 91 -2.7 27.1
21:30 1011 29.85 840 24.81 -1.5 29.4 91 -2.7 27.1
21:35 1011 29.85 840 24.81 -1.5 29.2 91 -2.8 26.9
21:40 1011 29.85 840 24.81 -1.7 29 91 -3 26.7
21:45 1011 29.85 840 24.81 -1.8 28.7 91 -3.1 26.5
21:50 1011 29.85 840 24.81 -2 28.4 91 -3.3 26.1
21:55 1011 29.85 840 24.81 -2.1 28.1 91 -3.4 25.9
22:00 1011 29.85 841 24.83 -2.2 28 91 -3.5 25.7
22:05 1011 29.85 841 24.83 -2.3 27.8 91 -3.6 25.5
22:10 1011 29.85 841 24.83 -2.4 27.6 90 -3.8 25.1
22:15 1012 29.88 841 24.83 -2.5 27.5 90 -3.9 25
22:20 1012 29.88 841 24.83 -2.5 27.6 90 -4 24.9
22:25 1012 29.88 841 24.83 -2.5 27.5 89 -4 24.8
22:30 1012 29.88 841 24.83 -2.5 27.4 90 -4 24.7
22:35 1012 29.88 841 24.83 -2.9 26.9 85 -5 23.1
22:40 1012 29.88 841 24.83 -4.1 24.7 85 -6.2 20.8
22:45 1012 29.88 841 24.83 -4.7 23.5 84 -7 19.5
22:50 1012 29.88 841 24.83 -5.2 22.7 85 -7.3 18.9
22:55 1012 29.88 842 24.86 -5.3 22.5 86 -7.3 18.8
23:00 1012 29.88 842 24.86 -5.2 22.6 86 -7.2 19
23:05 1013 29.91 842 24.86 -5.2 22.6 86 -7.2 19
23:10 1013 29.91 842 24.86 -5.3 22.5 85 -7.4 18.6
23:15 1013 29.91 842 24.86 -5.5 22.1 85 -7.6 18.3
23:20 1013 29.91 842 24.86 -5.6 22 85 -7.7 18.2
23:25 1013 29.91 842 24.86 -5.7 21.8 85 -7.8 17.9
23:30 1013 29.91 842 24.86 -5.8 21.5 85 -8 17.7
23:35 1013 29.91 842 24.86 -5.8 21.5 85 -8 17.5
23:40 1013 29.91 842 24.86 -6 21.3 84 -8.3 17
23:45 1013 29.91 842 24.86 -6.1 21 82 -8.7 16.4
23:50 1013 29.91 842 24.86 -6.2 20.9 82 -8.8 16.2
23:55 1013 29.91 843 24.89 -6.2 20.8 82 -8.8 16.2
24:00 1013 29.91 843 24.89 -6.2 20.8 82 -8.9 16